International Virtual Aviation Organisation

Russian Federation and Kazakhstan MCD

 

Карточка аэропорта UACC

Внимание!
Информация на этой странице в стадии наполнения.
Если вы не увидели какой-то информации, или заметили неточность - пожалуйста сообщите нам!
Спасибо!
Команда RU-STAFF
Название аэропортаАстана
Название аэропорта (англ.)Astana
Превышение1165 ft. (355.1 m.)
Координаты51°1.3319999999999', 71°28.014'
Высота перехода3790
Эшелон переходаFL60
Коды ответчика0601-0627, 7201-7217
Зона ОрВДАстана РПИ (UACC)
Данные METARUACC 180800Z 18007MPS CAVOK M05/M08 Q1019 R22/35//55 NOSIG RMK QFE733/0977
Проноз погоды (TAF)UACC 180500Z 1806/1906 18006MPS 9999 SCT015 BKN100 TXM05/1810Z TNM13/1903Z TEMPO 1814/1824 3000 BR SCT003 BKN020 TEMPO 1900/1906 3000 BR SCT003 BKN015
NOTAMshow/hide NOTAM
AWOS   TABLE

Информация о ВПП

ВПП Длина ВПП (м.) Покрытие Курс ВПП Частота ILS
043500Асфальтобетон35109.5
223500Асфальтобетон215111.7

Диспетчерские позиции

Позывной Наименование органа УВД Частота
UACC_APPАстана Подход124.6
UACC_R_APPАстана Круг120.7
UACC_TWRАстана Вышка118.7
UACC_GNDАстана Руление119.6



Спутниковое изображение